Time;durP1;ratioP1;P1;durP2;ratioP2;P2;SDS_P1;SDS_P2;PMS_P1;PMS_P2;Temp;Humidity;BMP_temperature;BMP_pressure;BME280_temperature;BME280_humidity;BME280_pressure;Samples;Min_cycle;Max_cycle;Signal;HPM_P1;HPM_P2
2021/08/24 00:00:55;;;;;;;;;;;14.10;99.90;;;;;;5093025;28;20261;-75
2021/08/24 00:03:20;;;;;;;;;;;14.10;99.90;;;;;;5092969;28;20210;-75
2021/08/24 00:05:46;;;;;;;;;;;13.90;99.90;;;;;;5093253;28;19912;-75
2021/08/24 00:08:12;;;;;;;;;;;13.80;99.90;;;;;;5092579;28;20414;-75
2021/08/24 00:10:43;;;;;;;;;;;13.80;99.90;;;;;;5084940;28;20433;-75
2021/08/24 00:13:08;;;;;;;;;;;13.50;99.90;;;;;;5092761;28;20383;-75
2021/08/24 00:15:34;;;;;;;;;;;13.50;99.90;;;;;;5092781;28;19919;-74
2021/08/24 00:18:00;;;;;;;;;;;13.50;99.90;;;;;;5092253;28;19908;-74
2021/08/24 00:20:30;;;;;;;;;;;13.50;99.90;;;;;;5092724;28;20001;-75
2021/08/24 00:22:56;;;;;;;;;;;13.50;99.90;;;;;;5091351;28;20329;-74
2021/08/24 00:25:22;;;;;;;;;;;13.50;99.90;;;;;;5092732;28;20269;-74
2021/08/24 00:27:47;;;;;;;;;;;13.50;99.90;;;;;;5092475;28;19915;-75
2021/08/24 00:30:13;;;;;;;;;;;13.40;99.90;;;;;;5092624;28;20003;-75
2021/08/24 00:32:38;;;;;;;;;;;13.30;99.90;;;;;;5092295;28;19912;-75
2021/08/24 00:35:04;;;;;;;;;;;13.40;99.90;;;;;;5092520;28;20266;-74
2021/08/24 00:37:30;;;;;;;;;;;13.30;99.90;;;;;;5091239;28;19920;-74
2021/08/24 00:39:55;;;;;;;;;;;13.30;99.90;;;;;;5088976;28;19955;-75
2021/08/24 00:42:21;;;;;;;;;;;13.30;99.90;;;;;;5091971;28;19931;-75
2021/08/24 00:44:48;;;;;;;;;;;13.20;99.90;;;;;;5092144;28;19908;-74
2021/08/24 00:47:14;;;;;;;;;;;13.10;99.90;;;;;;5091607;28;20377;-75
2021/08/24 00:49:40;;;;;;;;;;;13.10;99.90;;;;;;5092196;28;19908;-75
2021/08/24 00:52:08;;;;;;;;;;;13.10;99.90;;;;;;5091951;28;20345;-75
2021/08/24 00:54:34;;;;;;;;;;;13.10;99.90;;;;;;5092046;28;19915;-75
2021/08/24 00:57:05;;;;;;;;;;;13.10;99.90;;;;;;5091692;28;20289;-74
2021/08/24 00:59:31;;;;;;;;;;;13.00;99.90;;;;;;5091984;28;19908;-74
2021/08/24 01:01:56;;;;;;;;;;;13.00;99.90;;;;;;5091798;28;19918;-75
2021/08/24 01:04:25;;;;;;;;;;;12.90;99.90;;;;;;5091997;28;19999;-74
2021/08/24 01:07:06;;;;;;;;;;;12.80;99.90;;;;;;5091503;28;20208;-74
2021/08/24 01:09:51;;;;;;;;;;;12.90;99.90;;;;;;5089738;28;19944;-74
2021/08/24 01:12:36;;;;;;;;;;;12.90;99.90;;;;;;5084855;28;19912;-73
2021/08/24 01:15:04;;;;;;;;;;;12.90;99.90;;;;;;5091686;28;19909;-74
2021/08/24 01:17:53;;;;;;;;;;;12.80;99.90;;;;;;5091365;28;19916;-74
2021/08/24 01:20:32;;;;;;;;;;;12.80;99.90;;;;;;5085868;28;20270;-74
2021/08/24 01:23:03;;;;;;;;;;;12.70;99.90;;;;;;5091466;28;19942;-74
2021/08/24 01:25:33;;;;;;;;;;;12.70;99.90;;;;;;5090345;28;19946;-74
2021/08/24 01:28:11;;;;;;;;;;;12.70;99.90;;;;;;5090955;28;19909;-74
2021/08/24 01:30:37;;;;;;;;;;;12.70;99.90;;;;;;5091544;28;19915;-74
2021/08/24 01:33:05;;;;;;;;;;;12.70;99.90;;;;;;5091318;28;20285;-74
2021/08/24 01:35:43;;;;;;;;;;;12.80;99.90;;;;;;5091406;28;20270;-74
2021/08/24 01:38:14;;;;;;;;;;;12.70;99.90;;;;;;5089977;28;19915;-74
2021/08/24 01:41:09;;;;;;;;;;;12.70;99.90;;;;;;5087911;28;19990;-74
2021/08/24 01:43:46;;;;;;;;;;;12.80;99.90;;;;;;5082238;28;19916;-74
2021/08/24 01:46:17;;;;;;;;;;;12.90;99.90;;;;;;5090996;28;19917;-74
2021/08/24 01:48:47;;;;;;;;;;;12.90;99.90;;;;;;5093014;28;19908;-74
2021/08/24 01:51:14;;;;;;;;;;;12.90;99.90;;;;;;5095820;28;19974;-74
2021/08/24 01:53:42;;;;;;;;;;;12.90;99.90;;;;;;5095610;28;20179;-74
2021/08/24 01:56:10;;;;;;;;;;;13.00;99.90;;;;;;5095084;28;20018;-73
2021/08/24 01:58:41;;;;;;;;;;;12.90;99.90;;;;;;5095478;28;19909;-74
2021/08/24 02:01:08;;;;;;;;;;;12.80;99.90;;;;;;5095520;28;19912;-74
2021/08/24 02:03:36;;;;;;;;;;;12.90;99.90;;;;;;5095833;28;19916;-74
2021/08/24 02:06:08;;;;;;;;;;;12.80;99.90;;;;;;5094901;28;19943;-74
2021/08/24 02:08:35;;;;;;;;;;;12.90;99.90;;;;;;5095341;28;19908;-74
2021/08/24 02:11:02;;;;;;;;;;;12.90;99.90;;;;;;5091605;28;19955;-74
2021/08/24 02:13:31;;;;;;;;;;;13.00;99.90;;;;;;5095319;28;19916;-74
2021/08/24 02:15:57;;;;;;;;;;;13.00;99.90;;;;;;5095010;28;19912;-74
2021/08/24 02:18:25;;;;;;;;;;;12.90;99.90;;;;;;5094797;28;19908;-74
2021/08/24 02:21:13;;;;;;;;;;;12.80;99.90;;;;;;5094692;28;19928;-73
2021/08/24 02:23:39;;;;;;;;;;;12.90;99.90;;;;;;5095152;28;20552;-74
2021/08/24 02:26:06;;;;;;;;;;;12.70;99.90;;;;;;5094704;28;19938;-74
2021/08/24 02:28:42;;;;;;;;;;;12.70;99.90;;;;;;5094946;28;19908;-74
2021/08/24 02:31:10;;;;;;;;;;;12.80;99.90;;;;;;5093195;28;19908;-73
2021/08/24 02:33:49;;;;;;;;;;;12.70;99.90;;;;;;5094815;28;20430;-74
2021/08/24 02:36:14;;;;;;;;;;;12.50;99.90;;;;;;5094374;28;19919;-74
2021/08/24 02:38:44;;;;;;;;;;;12.50;99.90;;;;;;5094742;28;19908;-74
2021/08/24 02:41:12;;;;;;;;;;;12.60;99.90;;;;;;5091012;28;19919;-74
2021/08/24 02:43:37;;;;;;;;;;;12.70;99.90;;;;;;5094562;28;19908;-73
2021/08/24 02:46:07;;;;;;;;;;;12.70;99.90;;;;;;5092728;28;19927;-74
2021/08/24 02:48:33;;;;;;;;;;;12.60;99.90;;;;;;5094569;28;19908;-74
2021/08/24 02:50:59;;;;;;;;;;;12.70;99.90;;;;;;5094349;28;19923;-74
2021/08/24 02:53:25;;;;;;;;;;;12.60;99.90;;;;;;5094456;28;19908;-74
2021/08/24 02:55:51;;;;;;;;;;;12.60;99.90;;;;;;5094280;28;19972;-74
2021/08/24 02:58:16;;;;;;;;;;;12.40;99.90;;;;;;5094011;28;19908;-74
2021/08/24 03:00:42;;;;;;;;;;;12.40;99.90;;;;;;5092133;28;19909;-74
2021/08/24 03:03:08;;;;;;;;;;;12.50;99.90;;;;;;5094117;28;19954;-73
2021/08/24 03:05:34;;;;;;;;;;;12.60;99.90;;;;;;5093957;28;20304;-74
2021/08/24 03:08:00;;;;;;;;;;;12.50;99.90;;;;;;5093657;28;19919;-74
2021/08/24 03:10:27;;;;;;;;;;;12.40;99.90;;;;;;5090677;28;20186;-74
2021/08/24 03:13:02;;;;;;;;;;;12.40;99.90;;;;;;5103994;28;19907;-73
2021/08/24 03:15:31;;;;;;;;;;;12.60;99.90;;;;;;5114205;28;19907;-74
2021/08/24 03:18:01;;;;;;;;;;;12.50;99.90;;;;;;5113816;28;19907;-74
2021/08/24 03:20:29;;;;;;;;;;;12.40;99.90;;;;;;5114272;28;19919;-74
2021/08/24 03:22:55;;;;;;;;;;;12.30;99.90;;;;;;5114233;28;19908;-74
2021/08/24 03:25:22;;;;;;;;;;;12.20;99.90;;;;;;5114314;28;20351;-74
2021/08/24 03:27:51;;;;;;;;;;;12.10;99.90;;;;;;5113645;28;20280;-74
2021/08/24 03:30:17;;;;;;;;;;;12.10;99.90;;;;;;5114060;28;19908;-74
2021/08/24 03:32:43;;;;;;;;;;;12.10;99.90;;;;;;5113988;28;20379;-74
2021/08/24 03:35:09;;;;;;;;;;;12.20;99.90;;;;;;5112626;28;19915;-74
2021/08/24 03:37:35;;;;;;;;;;;12.20;99.90;;;;;;5113436;28;19951;-74
2021/08/24 03:40:01;;;;;;;;;;;12.00;99.90;;;;;;5103944;28;19997;-73
2021/08/24 03:42:26;;;;;;;;;;;11.90;99.90;;;;;;5093113;28;20073;-74
2021/08/24 03:44:52;;;;;;;;;;;11.90;99.90;;;;;;5093567;28;19908;-74
2021/08/24 03:47:17;;;;;;;;;;;11.90;99.90;;;;;;5092554;28;19923;-74
2021/08/24 03:49:43;;;;;;;;;;;11.90;99.90;;;;;;5093319;28;19908;-74
2021/08/24 03:52:09;;;;;;;;;;;11.80;99.90;;;;;;5093273;28;19908;-74
2021/08/24 03:54:34;;;;;;;;;;;11.60;99.90;;;;;;5093152;28;20086;-74
2021/08/24 03:57:00;;;;;;;;;;;11.50;99.90;;;;;;5093065;28;20446;-74
2021/08/24 03:59:25;;;;;;;;;;;11.40;99.90;;;;;;5093135;28;20005;-74
2021/08/24 04:01:51;;;;;;;;;;;11.40;99.90;;;;;;5093036;28;19908;-74
2021/08/24 04:04:16;;;;;;;;;;;11.20;99.90;;;;;;5093025;28;19912;-74
2021/08/24 04:06:42;;;;;;;;;;;11.20;99.90;;;;;;5092630;28;19974;-74
2021/08/24 04:09:08;;;;;;;;;;;11.20;99.90;;;;;;5092846;28;19930;-74
2021/08/24 04:11:33;;;;;;;;;;;11.20;99.90;;;;;;5088607;28;19908;-75
2021/08/24 04:13:59;;;;;;;;;;;11.20;99.90;;;;;;5110833;28;19998;-75
2021/08/24 04:16:24;;;;;;;;;;;11.10;99.90;;;;;;5112740;28;19965;-74
2021/08/24 04:18:50;;;;;;;;;;;11.20;99.90;;;;;;5113105;28;19907;-75
2021/08/24 04:21:17;;;;;;;;;;;11.10;99.90;;;;;;5112946;28;19911;-74
2021/08/24 04:23:43;;;;;;;;;;;10.90;99.90;;;;;;5113483;28;19907;-74
2021/08/24 04:26:08;;;;;;;;;;;10.90;99.90;;;;;;5112604;28;20304;-74
2021/08/24 04:28:34;;;;;;;;;;;10.60;99.90;;;;;;5112988;28;19908;-77
2021/08/24 04:31:01;;;;;;;;;;;10.70;99.90;;;;;;5112755;28;19912;-77
2021/08/24 04:33:27;;;;;;;;;;;10.70;99.90;;;;;;5112855;28;19996;-74
2021/08/24 04:35:53;;;;;;;;;;;10.70;99.90;;;;;;5112782;28;19962;-74
2021/08/24 04:38:19;;;;;;;;;;;10.70;99.90;;;;;;5112353;28;20261;-74
2021/08/24 04:40:45;;;;;;;;;;;10.70;99.90;;;;;;5096801;28;20007;-74
2021/08/24 04:43:10;;;;;;;;;;;10.60;99.90;;;;;;5105069;28;19908;-77
2021/08/24 04:45:36;;;;;;;;;;;10.60;99.90;;;;;;5112673;28;19912;-73
2021/08/24 04:48:01;;;;;;;;;;;10.60;99.90;;;;;;5112150;28;19961;-74
2021/08/24 04:50:27;;;;;;;;;;;10.50;99.90;;;;;;5112591;28;19907;-74
2021/08/24 04:52:52;;;;;;;;;;;10.60;99.90;;;;;;5112591;28;19931;-76
2021/08/24 04:55:18;;;;;;;;;;;10.60;99.90;;;;;;5113293;28;19954;-74
2021/08/24 04:57:43;;;;;;;;;;;10.50;99.90;;;;;;5113384;28;19964;-74
2021/08/24 05:00:09;;;;;;;;;;;10.70;99.90;;;;;;5112921;28;19912;-77
2021/08/24 05:02:34;;;;;;;;;;;10.60;99.90;;;;;;5112164;28;19961;-73
2021/08/24 05:05:00;;;;;;;;;;;10.60;99.90;;;;;;5112458;28;20804;-73
2021/08/24 05:07:25;;;;;;;;;;;10.50;99.90;;;;;;5112435;28;20002;-74
2021/08/24 05:09:51;;;;;;;;;;;10.60;99.90;;;;;;5105292;28;19981;-77
2021/08/24 05:12:16;;;;;;;;;;;10.70;99.90;;;;;;5092587;28;20357;-74
2021/08/24 05:14:42;;;;;;;;;;;10.80;99.90;;;;;;5092173;28;19936;-74
2021/08/24 05:17:07;;;;;;;;;;;10.80;99.90;;;;;;5091524;28;20365;-74
2021/08/24 05:19:33;;;;;;;;;;;10.70;99.90;;;;;;5092118;28;19908;-74
2021/08/24 05:21:58;;;;;;;;;;;10.90;99.90;;;;;;5092010;28;20087;-74
2021/08/24 05:24:24;;;;;;;;;;;10.90;99.90;;;;;;5091545;28;19913;-74
2021/08/24 05:26:49;;;;;;;;;;;10.90;99.90;;;;;;5091554;28;19934;-77
2021/08/24 05:29:16;;;;;;;;;;;10.90;99.90;;;;;;5091936;28;19908;-73
2021/08/24 05:31:42;;;;;;;;;;;10.90;99.90;;;;;;5091713;28;19999;-74
2021/08/24 05:34:08;;;;;;;;;;;11.00;99.90;;;;;;5091782;28;19908;-74
2021/08/24 05:36:33;;;;;;;;;;;11.10;99.90;;;;;;5091335;28;19919;-77
2021/08/24 05:38:59;;;;;;;;;;;11.10;99.90;;;;;;5091721;28;19943;-73
2021/08/24 05:41:24;;;;;;;;;;;11.20;99.90;;;;;;5088194;28;20403;-74
2021/08/24 05:43:50;;;;;;;;;;;11.40;99.90;;;;;;5091277;28;20368;-74
2021/08/24 05:46:15;;;;;;;;;;;11.40;99.90;;;;;;5090957;28;19995;-76
2021/08/24 05:48:41;;;;;;;;;;;11.50;99.90;;;;;;5091764;28;19915;-73
2021/08/24 05:51:11;;;;;;;;;;;11.50;99.90;;;;;;5091569;28;19908;-74
2021/08/24 05:53:36;;;;;;;;;;;11.60;99.90;;;;;;5091596;28;19915;-74
2021/08/24 05:56:05;;;;;;;;;;;11.60;99.90;;;;;;5091164;28;19916;-76
2021/08/24 05:58:31;;;;;;;;;;;11.70;99.90;;;;;;5091514;28;19908;-74
2021/08/24 06:00:56;;;;;;;;;;;11.80;99.90;;;;;;5091372;28;20357;-75
2021/08/24 06:03:22;;;;;;;;;;;11.80;99.90;;;;;;5091476;28;20045;-73
2021/08/24 06:05:48;;;;;;;;;;;11.80;99.90;;;;;;5091358;28;19908;-74
2021/08/24 06:08:13;;;;;;;;;;;12.00;99.90;;;;;;5091049;28;20440;-74
2021/08/24 06:10:39;;;;;;;;;;;12.20;99.90;;;;;;5087981;28;20289;-74
2021/08/24 06:13:06;;;;;;;;;;;12.30;99.90;;;;;;5091483;28;20242;-74
2021/08/24 06:15:32;;;;;;;;;;;12.40;99.90;;;;;;5091172;28;19908;-74
2021/08/24 06:17:58;;;;;;;;;;;12.60;99.90;;;;;;5091363;28;19961;-74
2021/08/24 06:20:23;;;;;;;;;;;12.60;99.90;;;;;;5091091;28;20045;-74
2021/08/24 06:22:49;;;;;;;;;;;12.70;99.90;;;;;;5091191;28;19912;-76
2021/08/24 06:25:15;;;;;;;;;;;12.80;99.90;;;;;;5091165;28;19908;-74
2021/08/24 06:27:41;;;;;;;;;;;12.80;99.90;;;;;;5090789;28;19999;-76
2021/08/24 06:30:07;;;;;;;;;;;12.80;99.90;;;;;;5091057;28;19993;-75
2021/08/24 06:32:35;;;;;;;;;;;12.80;99.90;;;;;;5091062;28;19915;-73
2021/08/24 06:35:01;;;;;;;;;;;12.60;99.90;;;;;;5091255;28;19970;-74
2021/08/24 06:37:27;;;;;;;;;;;12.50;99.90;;;;;;5094590;28;20020;-73
2021/08/24 06:39:52;;;;;;;;;;;12.60;99.90;;;;;;5091559;28;19909;-74
2021/08/24 06:42:18;;;;;;;;;;;12.70;99.90;;;;;;5094649;28;19908;-73
2021/08/24 06:44:43;;;;;;;;;;;12.60;99.90;;;;;;5094818;28;19952;-77
2021/08/24 06:47:09;;;;;;;;;;;12.60;99.90;;;;;;5093945;28;19920;-73
2021/08/24 06:49:35;;;;;;;;;;;12.70;99.90;;;;;;5094362;28;19908;-73
2021/08/24 06:52:03;;;;;;;;;;;12.80;99.90;;;;;;5094702;28;20265;-73
2021/08/24 06:54:29;;;;;;;;;;;12.90;99.90;;;;;;5094732;28;19940;-73
2021/08/24 06:56:55;;;;;;;;;;;13.00;99.90;;;;;;5094221;28;20341;-73
2021/08/24 06:59:20;;;;;;;;;;;13.10;99.90;;;;;;5094387;28;20392;-73
2021/08/24 07:01:45;;;;;;;;;;;13.20;99.90;;;;;;5094431;28;19908;-76
2021/08/24 07:04:11;;;;;;;;;;;13.30;99.90;;;;;;5094400;28;19912;-73
2021/08/24 07:06:37;;;;;;;;;;;13.40;99.90;;;;;;5094068;28;20361;-73
2021/08/24 07:09:03;;;;;;;;;;;13.40;99.90;;;;;;5094447;28;20428;-74
2021/08/24 07:11:29;;;;;;;;;;;13.40;99.90;;;;;;5093507;28;20369;-73
2021/08/24 07:13:55;;;;;;;;;;;13.60;99.90;;;;;;5089952;28;19916;-74
2021/08/24 07:16:21;;;;;;;;;;;13.60;99.90;;;;;;5092474;28;20484;-74
2021/08/24 07:18:46;;;;;;;;;;;13.70;99.90;;;;;;5089678;28;19951;-74
2021/08/24 07:21:16;;;;;;;;;;;13.80;99.90;;;;;;5092708;28;19948;-76
2021/08/24 07:23:41;;;;;;;;;;;13.70;99.90;;;;;;5093793;28;19908;-76
2021/08/24 07:26:07;;;;;;;;;;;14.00;99.90;;;;;;5093015;28;19908;-74
2021/08/24 07:28:32;;;;;;;;;;;14.20;99.90;;;;;;5092779;28;19954;-78
2021/08/24 07:30:58;;;;;;;;;;;14.30;99.90;;;;;;5091410;28;20027;-73
2021/08/24 07:33:24;;;;;;;;;;;14.50;99.90;;;;;;5092548;28;19954;-74
2021/08/24 07:35:50;;;;;;;;;;;14.80;99.90;;;;;;5077051;28;19966;-75
2021/08/24 07:38:17;;;;;;;;;;;15.80;99.90;;;;;;5087012;28;20365;-74
2021/08/24 07:40:43;;;;;;;;;;;16.80;99.90;;;;;;5080882;28;19915;-74
2021/08/24 07:43:09;;;;;;;;;;;15.90;99.90;;;;;;5085262;28;19915;-75
2021/08/24 07:45:34;;;;;;;;;;;15.70;99.90;;;;;;5088989;28;19916;-73
2021/08/24 07:48:00;;;;;;;;;;;15.00;99.90;;;;;;5091794;28;19908;-74
2021/08/24 07:50:25;;;;;;;;;;;14.50;99.90;;;;;;5082074;28;19958;-74
2021/08/24 07:52:51;;;;;;;;;;;14.50;99.90;;;;;;5080103;28;19908;-75
2021/08/24 07:55:17;;;;;;;;;;;14.60;99.90;;;;;;5083748;28;19999;-74
2021/08/24 07:57:42;;;;;;;;;;;14.50;99.90;;;;;;5091130;28;19970;-74
2021/08/24 08:00:08;;;;;;;;;;;14.50;99.90;;;;;;5078470;28;20373;-74
2021/08/24 08:02:34;;;;;;;;;;;14.50;99.90;;;;;;5082882;28;19927;-74
2021/08/24 08:04:59;;;;;;;;;;;14.60;99.90;;;;;;5090632;28;20345;-74
2021/08/24 08:07:25;;;;;;;;;;;14.30;99.90;;;;;;5083263;28;19934;-74
2021/08/24 08:09:50;;;;;;;;;;;14.30;99.90;;;;;;5074359;28;19908;-74
2021/08/24 08:12:17;;;;;;;;;;;14.30;99.90;;;;;;5083081;28;19937;-74
2021/08/24 08:14:42;;;;;;;;;;;14.40;99.90;;;;;;5089214;28;19923;-75
2021/08/24 08:17:10;;;;;;;;;;;14.70;99.90;;;;;;5069475;28;19913;-76
2021/08/24 08:19:36;;;;;;;;;;;14.70;99.90;;;;;;5090887;28;19954;-75
2021/08/24 08:22:02;;;;;;;;;;;15.00;99.90;;;;;;5082336;28;19908;-75
2021/08/24 08:24:28;;;;;;;;;;;15.10;99.90;;;;;;5088171;28;19908;-74
2021/08/24 08:26:53;;;;;;;;;;;15.00;99.90;;;;;;5078430;28;19953;-74
2021/08/24 08:29:19;;;;;;;;;;;15.20;99.90;;;;;;5088870;28;20306;-74
2021/08/24 08:31:45;;;;;;;;;;;15.10;99.90;;;;;;5080898;28;19908;-77
2021/08/24 08:34:11;;;;;;;;;;;15.30;99.90;;;;;;5086951;28;19912;-74
2021/08/24 08:36:37;;;;;;;;;;;15.40;99.90;;;;;;5092027;28;19920;-74
2021/08/24 08:39:03;;;;;;;;;;;15.50;99.90;;;;;;5079541;28;20063;-74
2021/08/24 08:41:47;;;;;;;;;;;15.30;99.90;;;;;;5079309;28;19908;-74
2021/08/24 08:44:26;;;;;;;;;;;15.00;99.90;;;;;;5077138;28;20029;-74
2021/08/24 08:46:52;;;;;;;;;;;15.00;99.90;;;;;;5093423;28;19920;-74
2021/08/24 08:49:23;;;;;;;;;;;15.30;99.90;;;;;;5093016;28;20316;-73
2021/08/24 08:51:55;;;;;;;;;;;15.30;99.90;;;;;;5084997;28;19969;-74
2021/08/24 08:54:39;;;;;;;;;;;15.10;99.90;;;;;;5075994;28;19933;-76
2021/08/24 08:57:15;;;;;;;;;;;14.60;99.90;;;;;;5083151;28;20006;-74
2021/08/24 08:59:48;;;;;;;;;;;14.80;99.90;;;;;;5089641;28;19961;-76
2021/08/24 09:02:32;;;;;;;;;;;15.00;99.90;;;;;;5092480;28;19959;-74
2021/08/24 09:05:00;;;;;;;;;;;14.80;99.90;;;;;;5088866;28;19954;-77
2021/08/24 09:07:29;;;;;;;;;;;14.70;99.90;;;;;;5088631;28;19912;-74
2021/08/24 09:09:55;;;;;;;;;;;14.90;99.90;;;;;;5086849;28;20325;-75
2021/08/24 09:12:21;;;;;;;;;;;14.90;99.90;;;;;;5083384;28;19951;-74
2021/08/24 09:14:48;;;;;;;;;;;15.00;99.90;;;;;;5084873;28;20229;-74
2021/08/24 09:17:13;;;;;;;;;;;15.10;99.90;;;;;;5090078;28;20280;-73
2021/08/24 09:19:39;;;;;;;;;;;15.10;99.90;;;;;;5089896;28;19995;-76
2021/08/24 09:22:05;;;;;;;;;;;14.90;99.90;;;;;;5088614;28;20284;-74
2021/08/24 09:24:31;;;;;;;;;;;14.60;99.90;;;;;;5065085;28;20539;-77
2021/08/24 09:26:56;;;;;;;;;;;14.70;99.90;;;;;;5081442;28;19961;-74
2021/08/24 09:29:33;;;;;;;;;;;14.50;99.90;;;;;;5111678;28;20386;-74
2021/08/24 09:32:00;;;;;;;;;;;14.60;99.90;;;;;;5083389;28;19916;-74
2021/08/24 09:34:27;;;;;;;;;;;14.60;99.90;;;;;;5083819;28;19912;-76
2021/08/24 09:36:53;;;;;;;;;;;14.70;99.90;;;;;;5076362;28;20375;-74
2021/08/24 09:39:38;;;;;;;;;;;14.70;99.90;;;;;;5089294;28;19909;-74
2021/08/24 09:42:06;;;;;;;;;;;14.90;99.90;;;;;;5089195;28;19982;-75
2021/08/24 09:44:33;;;;;;;;;;;15.00;99.90;;;;;;5086424;28;19973;-76
2021/08/24 09:47:07;;;;;;;;;;;15.10;99.90;;;;;;5072804;28;19921;-73
2021/08/24 09:49:37;;;;;;;;;;;15.30;99.90;;;;;;5087029;28;19985;-74
2021/08/24 09:52:09;;;;;;;;;;;15.30;99.90;;;;;;5079517;28;19915;-74
2021/08/24 09:54:41;;;;;;;;;;;15.60;99.90;;;;;;5086560;28;19909;-74
2021/08/24 09:57:16;;;;;;;;;;;15.50;99.90;;;;;;5077737;28;19995;-74
2021/08/24 09:59:45;;;;;;;;;;;15.30;99.90;;;;;;5080651;28;19910;-74
2021/08/24 10:02:30;;;;;;;;;;;15.20;99.90;;;;;;5082185;28;20250;-74
2021/08/24 10:04:55;;;;;;;;;;;15.10;99.90;;;;;;5091259;28;19962;-74
2021/08/24 10:07:35;;;;;;;;;;;15.10;99.90;;;;;;5080439;28;19912;-74
2021/08/24 10:10:00;;;;;;;;;;;15.00;99.90;;;;;;5093423;28;19908;-76
2021/08/24 10:12:28;;;;;;;;;;;15.30;99.90;;;;;;5087717;28;19908;-74
2021/08/24 10:14:54;;;;;;;;;;;15.60;99.90;;;;;;5093252;28;20249;-74
2021/08/24 10:17:31;;;;;;;;;;;15.60;99.90;;;;;;5087359;28;20157;-74
2021/08/24 10:19:57;;;;;;;;;;;15.50;99.90;;;;;;5085461;28;19961;-76
2021/08/24 10:22:35;;;;;;;;;;;15.50;99.90;;;;;;5086485;28;19915;-74
2021/08/24 10:25:08;;;;;;;;;;;15.90;99.90;;;;;;5088235;28;20015;-74
2021/08/24 10:27:34;;;;;;;;;;;16.10;99.90;;;;;;5090444;28;20050;-75
2021/08/24 10:30:03;;;;;;;;;;;16.00;99.90;;;;;;5094011;28;19959;-74
2021/08/24 10:32:37;;;;;;;;;;;16.00;99.90;;;;;;5090884;28;19908;-74
2021/08/24 10:35:11;;;;;;;;;;;16.10;99.90;;;;;;5091204;28;19908;-74
2021/08/24 10:37:39;;;;;;;;;;;15.80;99.90;;;;;;5089367;28;19965;-76
2021/08/24 10:40:07;;;;;;;;;;;15.80;99.90;;;;;;5085047;28;19977;-74
2021/08/24 10:42:33;;;;;;;;;;;15.70;99.90;;;;;;5085041;28;19908;-75
2021/08/24 10:45:00;;;;;;;;;;;15.30;99.90;;;;;;5086127;28;20372;-74
2021/08/24 10:47:29;;;;;;;;;;;15.40;99.90;;;;;;5086530;28;19923;-74
2021/08/24 10:49:55;;;;;;;;;;;15.20;99.90;;;;;;5101180;28;19914;-75
2021/08/24 10:52:40;;;;;;;;;;;15.10;99.90;;;;;;5084050;28;20126;-74
2021/08/24 10:55:10;;;;;;;;;;;15.10;99.90;;;;;;5101838;28;20007;-76
2021/08/24 10:57:54;;;;;;;;;;;15.10;99.90;;;;;;5091490;28;19998;-75
2021/08/24 11:00:22;;;;;;;;;;;15.30;99.90;;;;;;5092933;28;20010;-77
2021/08/24 11:02:48;;;;;;;;;;;15.60;99.90;;;;;;5078109;28;19912;-75
2021/08/24 11:05:22;;;;;;;;;;;15.80;99.90;;;;;;5086823;28;19933;-74
2021/08/24 11:07:57;;;;;;;;;;;15.70;99.90;;;;;;5092922;28;19912;-76
2021/08/24 11:10:41;;;;;;;;;;;15.80;99.90;;;;;;5092834;28;19908;-74
2021/08/24 11:13:07;;;;;;;;;;;15.60;99.90;;;;;;5092163;28;19953;-78
2021/08/24 11:15:38;;;;;;;;;;;15.60;99.90;;;;;;5084637;28;19908;-74
2021/08/24 11:18:04;;;;;;;;;;;15.50;99.90;;;;;;5092400;28;19913;-75
2021/08/24 11:20:46;;;;;;;;;;;15.80;99.90;;;;;;5085337;28;19949;-74
2021/08/24 11:23:15;;;;;;;;;;;15.70;99.90;;;;;;5075251;28;19940;-77
2021/08/24 11:25:43;;;;;;;;;;;15.60;99.90;;;;;;5088917;28;19912;-75
2021/08/24 11:28:21;;;;;;;;;;;15.80;99.90;;;;;;5087640;28;19969;-74
2021/08/24 11:30:50;;;;;;;;;;;16.00;99.90;;;;;;5078017;28;19912;-74
2021/08/24 11:33:15;;;;;;;;;;;16.10;99.90;;;;;;5090186;28;20478;-74
2021/08/24 11:35:41;;;;;;;;;;;16.60;99.90;;;;;;5076022;28;19916;-74
2021/08/24 11:38:10;;;;;;;;;;;16.80;99.90;;;;;;5094347;28;19953;-76
2021/08/24 11:40:39;;;;;;;;;;;16.40;99.90;;;;;;5094036;28;20335;-74
2021/08/24 11:43:07;;;;;;;;;;;16.30;99.90;;;;;;5074088;28;19936;-74
2021/08/24 11:45:42;;;;;;;;;;;16.40;99.90;;;;;;5079841;28;19966;-78
2021/08/24 11:48:11;;;;;;;;;;;16.20;99.90;;;;;;5091967;28;20365;-74
2021/08/24 11:50:37;;;;;;;;;;;16.20;99.90;;;;;;5089479;28;19908;-75
2021/08/24 11:53:04;;;;;;;;;;;16.50;99.90;;;;;;5089436;28;19908;-75
2021/08/24 11:55:35;;;;;;;;;;;16.40;99.90;;;;;;5083891;28;20281;-74
2021/08/24 11:58:01;;;;;;;;;;;17.20;99.90;;;;;;5089082;28;20327;-76
2021/08/24 12:00:27;;;;;;;;;;;17.70;99.90;;;;;;5085664;28;20134;-76
2021/08/24 12:02:53;;;;;;;;;;;17.70;99.90;;;;;;5091437;28;19908;-74
2021/08/24 12:05:18;;;;;;;;;;;17.60;99.90;;;;;;5083927;28;19908;-74
2021/08/24 12:07:50;;;;;;;;;;;17.90;99.90;;;;;;5088550;28;19908;-74
2021/08/24 12:10:24;;;;;;;;;;;17.60;99.90;;;;;;5093135;28;20288;-76
2021/08/24 12:12:51;;;;;;;;;;;17.60;99.90;;;;;;5092905;28;19916;-77
2021/08/24 12:15:29;;;;;;;;;;;17.60;99.90;;;;;;5091717;28;19987;-74
2021/08/24 12:18:01;;;;;;;;;;;17.10;99.90;;;;;;5092008;28;20339;-74
2021/08/24 12:20:36;;;;;;;;;;;17.20;99.90;;;;;;5084397;28;20432;-75
2021/08/24 12:23:02;;;;;;;;;;;17.10;99.90;;;;;;5095590;28;20331;-74
2021/08/24 12:25:47;;;;;;;;;;;17.50;99.90;;;;;;5090328;28;20377;-76
2021/08/24 12:28:15;;;;;;;;;;;17.10;99.90;;;;;;5092817;28;19915;-74
2021/08/24 12:30:59;;;;;;;;;;;16.80;99.90;;;;;;5091134;28;19919;-74
2021/08/24 12:33:27;;;;;;;;;;;17.10;99.90;;;;;;5091365;28;19995;-74
2021/08/24 12:35:53;;;;;;;;;;;17.30;99.90;;;;;;5090899;28;20257;-74
2021/08/24 12:38:37;;;;;;;;;;;17.20;99.90;;;;;;5092577;28;19994;-74
2021/08/24 12:41:02;;;;;;;;;;;17.50;99.90;;;;;;5092699;28;19915;-75
2021/08/24 12:43:40;;;;;;;;;;;17.20;99.90;;;;;;5092318;28;20292;-78
2021/08/24 12:46:18;;;;;;;;;;;17.20;99.90;;;;;;5091668;28;19959;-74
2021/08/24 12:49:02;;;;;;;;;;;17.20;99.90;;;;;;5092381;28;20278;-74
2021/08/24 12:51:29;;;;;;;;;;;16.80;99.90;;;;;;5087490;28;19915;-78
2021/08/24 12:54:01;;;;;;;;;;;16.60;99.90;;;;;;5085803;28;19909;-74
2021/08/24 12:56:38;;;;;;;;;;;16.70;99.90;;;;;;5091285;28;19912;-76
2021/08/24 12:59:05;;;;;;;;;;;16.70;99.90;;;;;;5088513;28;20310;-74
2021/08/24 13:01:30;;;;;;;;;;;16.80;99.90;;;;;;5083442;28;20311;-74
2021/08/24 13:04:15;;;;;;;;;;;16.90;99.90;;;;;;5091916;28;19920;-74
2021/08/24 13:06:42;;;;;;;;;;;17.20;99.90;;;;;;5091398;28;20436;-74
2021/08/24 13:09:26;;;;;;;;;;;17.00;99.90;;;;;;5082387;28;20273;-75
2021/08/24 13:12:10;;;;;;;;;;;16.90;99.90;;;;;;5088753;28;19915;-75
2021/08/24 13:14:41;;;;;;;;;;;16.80;99.90;;;;;;5080047;28;20448;-74
2021/08/24 13:17:09;;;;;;;;;;;16.70;99.90;;;;;;5071735;28;19966;-78
2021/08/24 13:19:34;;;;;;;;;;;16.40;99.90;;;;;;5082813;28;19915;-74
2021/08/24 13:22:01;;;;;;;;;;;16.40;99.90;;;;;;5090527;28;20265;-74
2021/08/24 13:24:32;;;;;;;;;;;16.60;99.90;;;;;;5086441;28;19930;-76
2021/08/24 13:27:02;;;;;;;;;;;16.50;99.90;;;;;;5085676;28;19987;-74
2021/08/24 13:29:29;;;;;;;;;;;16.60;99.90;;;;;;5086339;28;19952;-77
2021/08/24 13:31:55;;;;;;;;;;;16.90;99.90;;;;;;5085942;28;20003;-74
2021/08/24 13:34:23;;;;;;;;;;;17.00;99.90;;;;;;5076836;28;20436;-74
2021/08/24 13:36:50;;;;;;;;;;;17.00;99.90;;;;;;5084341;28;20393;-74
2021/08/24 13:39:16;;;;;;;;;;;17.10;99.90;;;;;;5086299;28;19912;-74
2021/08/24 13:41:44;;;;;;;;;;;17.40;99.90;;;;;;5084321;28;20272;-74
2021/08/24 13:44:12;;;;;;;;;;;17.30;99.90;;;;;;5071279;28;19977;-75
2021/08/24 13:46:38;;;;;;;;;;;17.40;99.90;;;;;;5091018;28;20011;-74
2021/08/24 13:49:04;;;;;;;;;;;17.40;99.90;;;;;;5089533;28;20328;-74
2021/08/24 13:51:50;;;;;;;;;;;17.50;99.90;;;;;;5089753;28;19957;-74
2021/08/24 13:54:22;;;;;;;;;;;17.40;99.90;;;;;;5076652;28;20471;-77
2021/08/24 13:56:49;;;;;;;;;;;17.50;99.90;;;;;;5090893;28;20382;-75
2021/08/24 13:59:19;;;;;;;;;;;17.60;99.90;;;;;;5094015;28;19907;-74
2021/08/24 14:01:46;;;;;;;;;;;17.80;99.90;;;;;;5078297;28;20042;-74
2021/08/24 14:04:16;;;;;;;;;;;17.50;99.90;;;;;;5091075;28;19908;-74
2021/08/24 14:06:54;;;;;;;;;;;17.50;99.90;;;;;;5090962;28;19915;-74
2021/08/24 14:09:28;;;;;;;;;;;17.10;99.90;;;;;;5091096;28;19908;-74
2021/08/24 14:11:55;;;;;;;;;;;17.10;99.90;;;;;;5089360;28;20372;-74
2021/08/24 14:14:30;;;;;;;;;;;17.10;99.90;;;;;;5082736;28;19920;-74
2021/08/24 14:16:59;;;;;;;;;;;17.20;99.90;;;;;;5089089;28;19912;-74
2021/08/24 14:19:31;;;;;;;;;;;17.30;99.90;;;;;;5082606;28;19908;-79
2021/08/24 14:21:57;;;;;;;;;;;17.40;99.90;;;;;;5068542;28;20353;-76
2021/08/24 14:24:23;;;;;;;;;;;17.30;99.90;;;;;;5088714;28;19915;-74